Time;durP1;ratioP1;P1;durP2;ratioP2;P2;SDS_P1;SDS_P2;PMS_P1;PMS_P2;Temp;Humidity;BMP_temperature;BMP_pressure;BME280_temperature;BME280_humidity;BME280_pressure;Samples;Min_cycle;Max_cycle;Signal;HPM_P1;HPM_P2
2024/01/26 00:01:12;;;;;;;44.13;19.38;;;;;;;9.23;100.00;102058.22;4780656;29;20043;-73
2024/01/26 00:03:38;;;;;;;39.10;17.85;;;;;;;9.22;100.00;102050.19;4775440;29;20070;-74
2024/01/26 00:06:04;;;;;;;45.97;20.55;;;;;;;9.21;100.00;102048.53;4790476;29;20185;-72
2024/01/26 00:08:30;;;;;;;40.40;17.10;;;;;;;9.20;100.00;102050.53;4782544;29;20494;-73
2024/01/26 00:10:56;;;;;;;41.80;18.67;;;;;;;9.26;100.00;102046.38;4777087;29;20046;-73
2024/01/26 00:13:22;;;;;;;42.80;17.88;;;;;;;9.26;100.00;102045.56;4774447;29;20412;-74
2024/01/26 00:15:47;;;;;;;43.35;17.63;;;;;;;9.23;100.00;102040.66;4774435;29;20039;-75
2024/01/26 00:18:13;;;;;;;40.10;16.27;;;;;;;9.23;100.00;102047.03;4767735;29;20429;-73
2024/01/26 00:20:38;;;;;;;44.00;18.98;;;;;;;9.21;100.00;102034.56;4776547;29;20035;-73
2024/01/26 00:23:03;;;;;;;41.78;17.92;;;;;;;9.31;100.00;102034.19;4790510;29;20634;-74
2024/01/26 00:25:29;;;;;;;45.67;17.38;;;;;;;9.34;100.00;102027.91;4781798;29;20043;-73
2024/01/26 00:27:55;;;;;;;44.55;18.70;;;;;;;9.28;100.00;102026.50;4776307;29;20039;-76
2024/01/26 00:30:20;;;;;;;47.13;18.38;;;;;;;9.29;100.00;102019.72;4787026;29;20100;-72
2024/01/26 00:32:45;;;;;;;44.15;18.08;;;;;;;9.39;100.00;102018.50;4779849;29;20096;-72
2024/01/26 00:35:11;;;;;;;41.67;19.17;;;;;;;9.30;100.00;102015.78;4780176;29;20039;-73
2024/01/26 00:37:36;;;;;;;43.15;19.48;;;;;;;9.27;100.00;102014.47;4776170;29;20039;-73
2024/01/26 00:40:02;;;;;;;42.33;18.23;;;;;;;9.28;100.00;102018.91;4778969;29;20545;-74
2024/01/26 00:42:28;;;;;;;42.22;17.17;;;;;;;9.35;100.00;102012.78;4779942;29;20561;-73
2024/01/26 00:44:53;;;;;;;36.03;16.92;;;;;;;9.33;100.00;102015.09;4776180;29;20031;-74
2024/01/26 00:47:19;;;;;;;39.35;16.98;;;;;;;9.30;100.00;102008.22;4771595;30;20514;-76
2024/01/26 00:49:44;;;;;;;40.45;16.85;;;;;;;9.32;100.00;102005.09;4775078;29;20035;-76
2024/01/26 00:52:09;;;;;;;36.90;16.63;;;;;;;9.32;100.00;102005.09;4771738;29;20102;-76
2024/01/26 00:54:35;;;;;;;37.92;17.10;;;;;;;9.34;100.00;102005.56;4775597;30;22826;-76
2024/01/26 00:57:01;;;;;;;41.03;16.50;;;;;;;9.33;100.00;102001.13;4775527;29;20027;-76
2024/01/26 00:59:26;;;;;;;35.65;17.38;;;;;;;9.42;100.00;102001.84;4781860;29;20512;-76
2024/01/26 01:01:52;;;;;;;31.55;15.13;;;;;;;9.29;100.00;101989.81;4774306;29;20135;-76
2024/01/26 01:04:17;;;;;;;33.72;16.25;;;;;;;9.33;100.00;101989.94;4775798;30;20035;-76
2024/01/26 01:06:43;;;;;;;35.47;16.25;;;;;;;9.34;100.00;101986.00;4781335;29;20077;-76
2024/01/26 01:09:09;;;;;;;34.88;16.30;;;;;;;9.33;100.00;101984.34;4773659;29;20127;-77
2024/01/26 01:11:35;;;;;;;33.70;14.02;;;;;;;9.33;100.00;101987.16;4781366;29;20381;-76
2024/01/26 01:14:00;;;;;;;28.27;13.48;;;;;;;9.37;100.00;101990.91;4774519;30;20056;-76
2024/01/26 01:16:28;;;;;;;31.95;15.40;;;;;;;9.33;100.00;101998.31;4772155;29;20034;-76
2024/01/26 01:18:53;;;;;;;28.17;13.77;;;;;;;9.39;100.00;101988.56;4776197;29;20035;-76
2024/01/26 01:21:18;;;;;;;33.20;14.32;;;;;;;9.38;100.00;101991.72;4775011;29;20054;-76
2024/01/26 01:23:44;;;;;;;29.70;13.07;;;;;;;9.42;100.00;101987.88;4772047;30;20112;-76
2024/01/26 01:26:09;;;;;;;31.65;13.13;;;;;;;9.39;100.00;101993.34;4773176;29;20035;-76
2024/01/26 01:28:34;;;;;;;34.13;15.05;;;;;;;9.36;100.00;101990.09;4775512;29;20054;-76
2024/01/26 01:31:00;;;;;;;28.15;13.30;;;;;;;9.36;100.00;102003.25;4777021;29;20035;-77
2024/01/26 01:33:25;;;;;;;32.38;13.20;;;;;;;9.40;100.00;102003.38;4775217;29;20097;-76
2024/01/26 01:35:52;;;;;;;31.15;14.65;;;;;;;9.39;100.00;101988.56;4774636;29;20485;-76
2024/01/26 01:38:18;;;;;;;32.38;13.88;;;;;;;9.45;100.00;101995.59;4782812;29;20050;-76
2024/01/26 01:40:44;;;;;;;26.42;12.70;;;;;;;9.38;100.00;101981.34;4778166;29;20039;-76
2024/01/26 01:43:19;;;;;;;29.70;14.15;;;;;;;9.41;100.00;101974.28;4776934;29;20035;-76
2024/01/26 01:45:45;;;;;;;33.53;14.10;;;;;;;9.44;100.00;101977.19;4783549;29;20035;-76
2024/01/26 01:48:11;;;;;;;29.02;13.10;;;;;;;9.27;100.00;101978.16;4778026;30;20790;-77
2024/01/26 01:50:37;;;;;;;28.30;13.68;;;;;;;9.40;100.00;101976.22;4795258;29;20561;-78
2024/01/26 01:53:04;;;;;;;28.90;13.68;;;;;;;9.43;100.00;101969.97;4777948;29;20039;-78
2024/01/26 01:55:29;;;;;;;26.85;13.82;;;;;;;9.45;100.00;101964.84;4778600;30;20563;-78
2024/01/26 01:57:57;;;;;;;29.98;14.00;;;;;;;9.40;100.00;101955.84;4776489;29;20064;-73
2024/01/26 02:00:23;;;;;;;24.35;12.82;;;;;;;9.40;100.00;101962.25;4780279;29;20504;-73
2024/01/26 02:02:49;;;;;;;27.85;13.77;;;;;;;9.44;100.00;101954.00;4780247;29;20532;-74
2024/01/26 02:05:15;;;;;;;25.73;12.82;;;;;;;9.43;100.00;101956.00;4778537;29;20118;-73
2024/01/26 02:07:41;;;;;;;29.70;14.40;;;;;;;9.35;100.00;101952.13;4782744;29;20126;-72
2024/01/26 02:10:09;;;;;;;30.23;14.80;;;;;;;9.45;100.00;101958.47;4780005;29;20054;-73
2024/01/26 02:12:35;;;;;;;27.33;14.60;;;;;;;9.48;100.00;101964.16;4782013;30;20559;-72
2024/01/26 02:15:03;;;;;;;28.58;15.02;;;;;;;9.50;100.00;101966.63;4782594;30;20055;-74
2024/01/26 02:17:32;;;;;;;29.48;14.27;;;;;;;9.49;100.00;101951.81;4780190;29;20043;-75
2024/01/26 02:19:58;;;;;;;28.75;14.38;;;;;;;9.48;100.00;101943.78;4782371;29;20028;-74
2024/01/26 02:22:24;;;;;;;26.95;14.48;;;;;;;9.48;100.00;101933.41;4791685;29;20039;-73
2024/01/26 02:24:49;;;;;;;32.45;15.23;;;;;;;9.52;100.00;101928.75;4778687;29;20634;-72
2024/01/26 02:27:15;;;;;;;32.58;15.30;;;;;;;9.54;100.00;101918.06;4770047;29;20257;-78
2024/01/26 02:29:40;;;;;;;29.48;15.07;;;;;;;9.55;100.00;101902.94;4781527;29;20078;-73
2024/01/26 02:32:07;;;;;;;26.50;14.07;;;;;;;9.49;100.00;101895.13;4781991;29;20037;-76
2024/01/26 02:34:32;;;;;;;26.38;12.90;;;;;;;9.49;100.00;101897.91;4789278;29;20493;-74
2024/01/26 02:36:58;;;;;;;26.77;13.70;;;;;;;9.48;100.00;101893.47;4777239;29;20051;-73
2024/01/26 02:39:23;;;;;;;26.90;13.77;;;;;;;9.53;100.00;101888.50;4775485;29;20412;-72
2024/01/26 02:41:49;;;;;;;23.50;13.20;;;;;;;9.51;100.00;101892.81;4770845;30;20036;-73
2024/01/26 02:44:14;;;;;;;26.48;14.00;;;;;;;9.57;100.00;101886.63;4778056;29;20046;-74
2024/01/26 02:46:40;;;;;;;24.10;12.05;;;;;;;9.59;100.00;101891.06;4778892;30;20058;-74
2024/01/26 02:49:05;;;;;;;26.10;13.15;;;;;;;9.61;100.00;101888.72;4781051;29;20126;-73
2024/01/26 02:51:31;;;;;;;24.25;13.13;;;;;;;9.57;100.00;101877.41;4783321;29;20057;-73
2024/01/26 02:53:56;;;;;;;21.63;11.02;;;;;;;9.59;100.00;101866.69;4777861;29;20418;-72
2024/01/26 02:56:22;;;;;;;24.70;12.63;;;;;;;9.63;100.00;101862.03;4778121;29;20108;-75
2024/01/26 02:58:47;;;;;;;23.20;11.32;;;;;;;9.54;100.00;101866.94;4776181;29;20051;-76
2024/01/26 03:01:13;;;;;;;24.27;13.00;;;;;;;9.68;100.00;101850.66;4779151;29;20041;-76
2024/01/26 03:03:38;;;;;;;30.15;12.15;;;;;;;9.55;100.00;101835.03;4779120;29;20046;-76
2024/01/26 03:06:05;;;;;;;26.60;12.82;;;;;;;9.64;100.00;101841.34;4780671;30;20130;-76
2024/01/26 03:08:31;;;;;;;26.52;11.32;;;;;;;9.60;100.00;101839.59;4778764;29;20035;-76
2024/01/26 03:10:56;;;;;;;24.30;11.88;;;;;;;9.63;100.00;101836.88;4773346;30;20513;-77
2024/01/26 03:13:22;;;;;;;25.17;12.85;;;;;;;9.65;100.00;101822.56;4778205;29;20533;-76
2024/01/26 03:15:51;;;;;;;24.40;11.93;;;;;;;9.64;100.00;101832.94;4767701;29;20442;-76
2024/01/26 03:18:17;;;;;;;24.90;13.50;;;;;;;9.66;100.00;101819.44;4777445;29;20035;-76
2024/01/26 03:20:43;;;;;;;29.95;13.45;;;;;;;9.70;100.00;101819.56;4779982;29;20446;-76
2024/01/26 03:23:09;;;;;;;23.98;11.80;;;;;;;9.69;100.00;101820.72;4779366;29;20118;-76
2024/01/26 03:25:34;;;;;;;25.63;13.02;;;;;;;9.66;100.00;101813.03;4775103;29;20043;-76
2024/01/26 03:27:59;;;;;;;22.05;12.40;;;;;;;9.75;100.00;101802.53;4781008;29;20093;-77
2024/01/26 03:30:25;;;;;;;21.85;11.55;;;;;;;9.72;100.00;101800.47;4776113;29;20040;-77
2024/01/26 03:32:51;;;;;;;21.80;11.45;;;;;;;9.72;100.00;101789.28;4770023;29;20040;-77
2024/01/26 03:35:16;;;;;;;24.60;12.38;;;;;;;9.67;100.00;101781.09;4777315;30;20040;-76
2024/01/26 03:37:42;;;;;;;23.17;11.52;;;;;;;9.78;100.00;101776.66;4774649;29;20039;-76
2024/01/26 03:40:07;;;;;;;22.58;11.18;;;;;;;9.83;100.00;101773.66;4780360;29;20536;-76
2024/01/26 03:42:33;;;;;;;28.58;13.70;;;;;;;9.79;100.00;101778.31;4778108;29;20531;-76
2024/01/26 03:44:58;;;;;;;23.85;11.40;;;;;;;9.82;100.00;101779.59;4780484;29;20102;-76
2024/01/26 03:47:23;;;;;;;19.58;10.98;;;;;;;9.73;100.00;101779.72;4775846;29;20059;-76
2024/01/26 03:49:49;;;;;;;19.85;11.32;;;;;;;9.77;100.00;101772.25;4776058;29;20045;-76
2024/01/26 03:52:14;;;;;;;25.23;11.98;;;;;;;9.88;100.00;101765.00;4772341;29;20226;-77
2024/01/26 03:54:40;;;;;;;25.70;13.57;;;;;;;9.87;100.00;101757.81;4777523;30;20055;-77
2024/01/26 03:57:05;;;;;;;22.70;11.85;;;;;;;9.90;100.00;101757.09;4778208;29;20043;-76
2024/01/26 03:59:31;;;;;;;26.88;14.15;;;;;;;9.83;100.00;101748.47;4766190;29;20520;-77
2024/01/26 04:01:56;;;;;;;34.05;14.15;;;;;;;9.91;100.00;101736.34;4776958;29;20046;-76
2024/01/26 04:04:22;;;;;;;28.67;15.07;;;;;;;9.91;100.00;101730.75;4769325;29;20046;-77
2024/01/26 04:06:48;;;;;;;29.15;14.55;;;;;;;9.87;100.00;101723.44;4775094;29;20125;-73
2024/01/26 04:09:13;;;;;;;31.10;17.30;;;;;;;10.04;100.00;101725.16;4781876;29;20130;-75
2024/01/26 04:11:39;;;;;;;28.40;14.35;;;;;;;9.99;100.00;101726.19;4776654;30;20036;-74
2024/01/26 04:14:04;;;;;;;25.13;13.80;;;;;;;10.07;100.00;101721.63;4777895;30;20074;-73
2024/01/26 04:16:31;;;;;;;31.60;14.43;;;;;;;9.98;100.00;101705.78;4778627;29;20058;-77
2024/01/26 04:18:56;;;;;;;29.88;15.43;;;;;;;10.03;100.00;101703.94;4778205;29;20381;-76
2024/01/26 04:21:21;;;;;;;26.48;14.55;;;;;;;9.96;100.00;101699.75;4776614;29;20035;-77
2024/01/26 04:23:47;;;;;;;31.17;15.35;;;;;;;9.95;100.00;101691.69;4769580;29;20044;-76
2024/01/26 04:26:12;;;;;;;28.38;15.00;;;;;;;10.08;100.00;101678.50;4772002;29;20043;-76
2024/01/26 04:28:38;;;;;;;26.30;14.68;;;;;;;10.14;100.00;101682.66;4776448;29;20026;-77
2024/01/26 04:31:04;;;;;;;30.25;15.07;;;;;;;10.08;100.00;101679.31;4775010;29;20687;-76
2024/01/26 04:33:29;;;;;;;26.60;13.70;;;;;;;10.09;100.00;101691.31;4776351;30;20039;-77
2024/01/26 04:35:55;;;;;;;27.80;13.93;;;;;;;10.10;100.00;101693.78;4785255;29;20602;-76
2024/01/26 04:38:20;;;;;;;22.40;12.80;;;;;;;10.14;100.00;101689.09;4776686;29;20486;-76
2024/01/26 04:40:45;;;;;;;26.75;13.30;;;;;;;10.16;100.00;101669.13;4776436;29;20518;-76
2024/01/26 04:43:11;;;;;;;25.45;13.95;;;;;;;10.26;100.00;101659.44;4776623;29;20123;-76
2024/01/26 04:45:36;;;;;;;28.05;14.15;;;;;;;10.20;100.00;101658.84;4778523;29;20031;-76
2024/01/26 04:48:03;;;;;;;24.52;13.85;;;;;;;10.15;100.00;101667.53;4771290;29;20108;-76
2024/01/26 04:50:28;;;;;;;25.48;13.25;;;;;;;10.23;100.00;101666.56;4779832;29;20035;-77
2024/01/26 04:52:54;;;;;;;25.83;13.73;;;;;;;10.26;100.00;101662.22;4775046;29;20409;-76
2024/01/26 04:55:23;;;;;;;24.88;13.85;;;;;;;10.26;100.00;101660.22;4768510;29;20114;-76
2024/01/26 04:57:48;;;;;;;27.60;14.70;;;;;;;10.26;100.00;101639.84;4777264;29;20074;-76
2024/01/26 05:00:15;;;;;;;23.90;13.65;;;;;;;10.17;100.00;101646.41;4772846;29;20063;-77
2024/01/26 05:02:41;;;;;;;28.08;15.35;;;;;;;10.26;100.00;101637.84;4777275;29;20039;-76
2024/01/26 05:05:06;;;;;;;40.65;14.18;;;;;;;10.22;100.00;101628.53;4779778;29;20088;-76
2024/01/26 05:07:32;;;;;;;26.00;15.38;;;;;;;10.24;100.00;101629.00;4777723;29;20485;-77
2024/01/26 05:09:57;;;;;;;28.52;15.60;;;;;;;10.30;100.00;101635.19;4774361;29;20035;-76
2024/01/26 05:12:23;;;;;;;25.15;14.27;;;;;;;10.22;100.00;101631.34;4769497;29;20039;-77
2024/01/26 05:14:48;;;;;;;26.92;14.73;;;;;;;10.23;100.00;101635.78;4773329;29;20597;-76
2024/01/26 05:17:13;;;;;;;34.53;16.08;;;;;;;10.29;100.00;101613.97;4775728;29;20464;-77
2024/01/26 05:19:39;;;;;;;28.05;13.65;;;;;;;10.18;100.00;101620.06;4781581;29;20396;-78
2024/01/26 05:22:04;;;;;;;30.55;15.35;;;;;;;10.26;100.00;101607.06;4779910;30;20471;-78
2024/01/26 05:24:29;;;;;;;27.60;13.65;;;;;;;10.21;100.00;101624.13;4780551;29;20039;-77
2024/01/26 05:26:55;;;;;;;28.17;13.98;;;;;;;10.23;100.00;101607.00;4780150;29;20059;-76
2024/01/26 05:29:20;;;;;;;24.02;13.38;;;;;;;10.29;100.00;101606.41;4779569;29;20031;-76
2024/01/26 05:31:46;;;;;;;30.60;13.63;;;;;;;10.26;100.00;101592.28;4781081;29;20043;-76
2024/01/26 05:34:11;;;;;;;29.15;14.30;;;;;;;10.18;100.00;101577.28;4781661;29;20525;-76
2024/01/26 05:36:43;;;;;;;24.25;12.98;;;;;;;10.24;100.00;101570.25;4781223;29;20038;-76
2024/01/26 05:39:11;;;;;;;25.80;13.48;;;;;;;10.18;100.00;101568.88;4778542;30;20079;-76
2024/01/26 05:41:37;;;;;;;24.25;12.48;;;;;;;10.26;100.00;101548.31;4791933;29;20381;-76
2024/01/26 05:44:03;;;;;;;22.90;13.00;;;;;;;10.22;100.00;101547.41;4782989;29;20054;-76
2024/01/26 05:46:29;;;;;;;24.60;13.52;;;;;;;10.34;100.00;101532.56;4775762;29;20091;-76
2024/01/26 05:48:56;;;;;;;22.08;10.77;;;;;;;10.34;100.00;101536.16;4775310;29;20066;-76
2024/01/26 05:51:21;;;;;;;23.55;12.73;;;;;;;10.33;100.00;101526.16;4777536;29;20035;-76
2024/01/26 05:53:47;;;;;;;20.70;11.73;;;;;;;10.26;100.00;101519.53;4777710;29;20137;-76
2024/01/26 05:56:12;;;;;;;18.55;10.13;;;;;;;10.33;100.00;101514.97;4782769;29;20051;-76
2024/01/26 05:58:37;;;;;;;17.17;10.88;;;;;;;10.28;100.00;101515.19;4773874;30;20063;-76
2024/01/26 06:01:03;;;;;;;23.23;10.68;;;;;;;10.42;100.00;101516.78;4777025;29;20040;-76
2024/01/26 06:03:28;;;;;;;21.45;10.00;;;;;;;10.28;100.00;101509.59;4775978;29;20031;-76
2024/01/26 06:05:54;;;;;;;18.58;9.88;;;;;;;10.36;100.00;101511.44;4779472;29;20086;-76
2024/01/26 06:08:20;;;;;;;17.17;9.30;;;;;;;10.37;100.00;101513.06;4774503;29;20564;-76
2024/01/26 06:10:46;;;;;;;18.30;9.27;;;;;;;10.35;100.00;101514.59;4781461;29;20070;-76
2024/01/26 06:13:11;;;;;;;14.60;8.93;;;;;;;10.36;100.00;101505.84;4778970;30;22035;-76
2024/01/26 06:15:36;;;;;;;16.05;10.07;;;;;;;10.35;100.00;101504.22;4782718;29;20074;-76
2024/01/26 06:18:02;;;;;;;16.90;9.23;;;;;;;10.36;100.00;101505.84;4774996;29;20070;-76
2024/01/26 06:20:31;;;;;;;16.15;8.90;;;;;;;10.48;100.00;101518.13;4779099;29;20031;-76
2024/01/26 06:23:00;;;;;;;17.35;10.00;;;;;;;10.38;100.00;101506.28;4791940;29;20045;-76
2024/01/26 06:25:26;;;;;;;15.75;9.63;;;;;;;10.36;100.00;101499.44;4780202;29;20118;-77
2024/01/26 06:27:51;;;;;;;19.13;8.63;;;;;;;10.38;100.00;101503.50;4793993;29;20210;-76
2024/01/26 06:30:17;;;;;;;15.90;8.27;;;;;;;10.38;100.00;101497.09;4777339;29;20039;-76
2024/01/26 06:32:43;;;;;;;16.70;9.73;;;;;;;10.41;100.00;101493.56;4789919;29;20035;-75
2024/01/26 06:35:09;;;;;;;15.00;8.15;;;;;;;10.38;100.00;101492.28;4783765;29;20108;-75
2024/01/26 06:37:35;;;;;;;14.00;7.55;;;;;;;10.41;100.00;101496.34;4779635;29;20047;-74
2024/01/26 06:40:00;;;;;;;14.05;8.15;;;;;;;10.38;100.00;101480.31;4782807;29;20449;-73
2024/01/26 06:42:25;;;;;;;11.77;7.03;;;;;;;10.34;100.00;101479.41;4776846;30;20074;-73
2024/01/26 06:44:52;;;;;;;14.05;7.63;;;;;;;10.37;100.00;101490.69;4778920;29;20096;-73
2024/01/26 06:47:19;;;;;;;12.25;7.28;;;;;;;10.42;100.00;101486.00;4775481;29;20055;-72
2024/01/26 06:49:44;;;;;;;12.13;7.10;;;;;;;10.41;100.00;101484.34;4779322;29;20488;-73
2024/01/26 06:52:09;;;;;;;14.43;7.07;;;;;;;10.33;100.00;101484.19;4791349;29;20043;-73
2024/01/26 06:54:35;;;;;;;13.30;6.15;;;;;;;10.44;100.00;101472.44;4774178;29;20503;-73
2024/01/26 06:57:00;;;;;;;9.20;6.13;;;;;;;10.41;100.00;101473.16;4779018;29;20122;-75
2024/01/26 06:59:26;;;;;;;11.00;6.35;;;;;;;10.42;100.00;101483.19;4780311;29;20172;-72
2024/01/26 07:01:51;;;;;;;9.30;6.22;;;;;;;10.37;100.00;101467.47;4785593;29;20034;-74
2024/01/26 07:04:16;;;;;;;8.35;5.22;;;;;;;10.31;100.00;101475.34;4788226;29;20042;-74
2024/01/26 07:06:42;;;;;;;6.72;4.93;;;;;;;10.26;100.00;101475.56;4776180;29;20039;-74
2024/01/26 07:09:08;;;;;;;7.10;4.90;;;;;;;10.44;100.00;101478.84;4784488;29;20446;-73
2024/01/26 07:11:34;;;;;;;7.07;4.80;;;;;;;10.70;100.00;101483.06;4781981;29;20057;-74
2024/01/26 07:14:00;;;;;;;8.48;4.93;;;;;;;10.64;100.00;101476.91;4792857;29;20035;-73
2024/01/26 07:16:25;;;;;;;8.25;5.30;;;;;;;10.54;100.00;101463.47;4767568;29;20528;-73
2024/01/26 07:18:51;;;;;;;6.97;4.18;;;;;;;10.55;100.00;101463.13;4778313;29;20039;-74
2024/01/26 07:21:18;;;;;;;12.25;4.30;;;;;;;10.45;100.00;101465.66;4777966;29;20054;-73
2024/01/26 07:23:43;;;;;;;7.97;4.70;;;;;;;10.53;100.00;101461.88;4776708;29;20101;-73
2024/01/26 07:26:09;;;;;;;5.45;3.67;;;;;;;10.42;100.00;101452.41;4778779;29;20043;-73
2024/01/26 07:28:34;;;;;;;7.20;4.28;;;;;;;10.40;100.00;101449.16;4775404;29;20162;-74
2024/01/26 07:31:00;;;;;;;6.93;4.20;;;;;;;10.44;100.00;101445.28;4776932;29;20055;-72
2024/01/26 07:33:25;;;;;;;7.15;4.68;;;;;;;10.45;100.00;101444.09;4778443;29;20046;-73
2024/01/26 07:35:50;;;;;;;7.63;4.88;;;;;;;10.48;100.00;101445.38;4775904;29;20024;-73
2024/01/26 07:38:16;;;;;;;7.60;4.38;;;;;;;10.52;100.00;101449.03;4775692;29;20058;-80
2024/01/26 07:40:41;;;;;;;11.25;5.80;;;;;;;10.49;100.00;101449.78;4778026;29;20042;-78
2024/01/26 07:43:08;;;;;;;8.27;4.95;;;;;;;10.45;100.00;101446.06;4776102;29;20482;-79
2024/01/26 07:45:34;;;;;;;7.97;5.45;;;;;;;10.46;100.00;101442.13;4777351;29;20413;-76
2024/01/26 07:48:00;;;;;;;9.90;5.32;;;;;;;10.47;100.00;101449.31;4774182;29;20051;-76
2024/01/26 07:50:25;;;;;;;7.78;5.18;;;;;;;10.43;100.00;101454.03;4780349;29;20555;-77
2024/01/26 07:52:51;;;;;;;7.70;4.72;;;;;;;10.39;100.00;101453.94;4778468;29;20146;-76
2024/01/26 07:55:17;;;;;;;8.50;5.03;;;;;;;10.47;100.00;101460.53;4777420;29;20086;-76
2024/01/26 07:57:42;;;;;;;9.43;5.43;;;;;;;10.47;100.00;101466.91;4773604;29;20114;-77
2024/01/26 08:00:08;;;;;;;7.28;4.85;;;;;;;10.49;100.00;101458.16;4784338;29;20038;-77
2024/01/26 08:02:34;;;;;;;10.85;6.07;;;;;;;10.49;100.00;101456.19;4774780;29;20046;-76
2024/01/26 08:05:00;;;;;;;10.95;6.18;;;;;;;10.49;100.00;101469.38;4775458;29;20070;-76
2024/01/26 08:07:26;;;;;;;11.27;6.25;;;;;;;10.42;100.00;101470.00;4779623;29;20544;-77
2024/01/26 08:09:51;;;;;;;10.43;5.05;;;;;;;10.46;100.00;101482.09;4780960;29;20035;-77
2024/01/26 08:12:16;;;;;;;9.95;6.00;;;;;;;10.51;100.00;101459.41;4776828;29;20099;-77
2024/01/26 08:14:42;;;;;;;16.25;6.25;;;;;;;10.47;100.00;101460.53;4779622;29;20122;-77
2024/01/26 08:17:07;;;;;;;11.38;7.25;;;;;;;10.52;100.00;101463.03;4779359;29;20049;-76
2024/01/26 08:19:35;;;;;;;13.80;7.68;;;;;;;10.47;100.00;101452.13;4778978;29;20070;-77
2024/01/26 08:22:00;;;;;;;13.05;7.78;;;;;;;10.56;100.00;101452.72;4779272;29;20690;-76
2024/01/26 08:24:26;;;;;;;15.88;9.73;;;;;;;10.53;100.00;101442.28;4780384;29;20042;-76
2024/01/26 08:26:51;;;;;;;16.00;9.18;;;;;;;10.55;100.00;101445.53;4775464;29;20039;-76
2024/01/26 08:29:17;;;;;;;18.60;8.65;;;;;;;10.64;100.00;101443.31;4791582;29;20455;-76
2024/01/26 08:31:42;;;;;;;16.65;8.88;;;;;;;10.60;100.00;101425.63;4777686;29;20047;-76
2024/01/26 08:34:07;;;;;;;16.75;9.57;;;;;;;10.64;100.00;101426.53;4776318;29;20046;-75
2024/01/26 08:36:35;;;;;;;17.48;9.60;;;;;;;10.68;100.00;101443.41;4777977;29;20035;-76
2024/01/26 08:39:00;;;;;;;17.13;9.80;;;;;;;10.58;100.00;101439.19;4782266;29;20114;-76
2024/01/26 08:41:26;;;;;;;18.20;10.40;;;;;;;10.63;100.00;101438.91;4778883;29;20459;-76
2024/01/26 08:43:51;;;;;;;16.30;9.50;;;;;;;10.63;100.00;101446.50;4774270;29;20058;-76
2024/01/26 08:46:16;;;;;;;18.83;9.52;;;;;;;10.58;100.00;101428.81;4778382;29;20125;-76
2024/01/26 08:48:42;;;;;;;18.80;9.93;;;;;;;10.64;100.00;101443.31;4780463;29;20055;-76
2024/01/26 08:51:07;;;;;;;17.38;9.25;;;;;;;10.65;100.00;101447.75;4782548;29;20049;-76
2024/01/26 08:53:32;;;;;;;19.73;9.50;;;;;;;10.62;100.00;101444.88;4778434;29;20027;-76
2024/01/26 08:55:58;;;;;;;20.13;10.52;;;;;;;10.66;100.00;101451.38;4779302;29;20032;-76
2024/01/26 08:58:23;;;;;;;19.92;11.52;;;;;;;10.58;100.00;101451.22;4777533;29;20094;-75
2024/01/26 09:00:48;;;;;;;16.15;9.70;;;;;;;10.53;100.00;101450.66;4787363;29;20084;-73
2024/01/26 09:03:14;;;;;;;16.10;9.90;;;;;;;10.56;100.00;101461.97;4777497;29;20043;-75
2024/01/26 09:05:39;;;;;;;17.85;10.30;;;;;;;10.60;100.00;101448.03;4774364;29;20043;-73
2024/01/26 09:08:05;;;;;;;17.52;9.95;;;;;;;10.61;100.00;101455.25;4786548;29;20035;-74
2024/01/26 09:10:30;;;;;;;19.73;10.70;;;;;;;10.53;100.00;101462.66;4782961;29;20072;-74
2024/01/26 09:12:55;;;;;;;22.40;11.10;;;;;;;10.58;100.00;101483.97;4778562;29;20027;-74
2024/01/26 09:15:21;;;;;;;15.00;9.15;;;;;;;10.54;100.00;101478.31;4776529;29;20035;-75
2024/01/26 09:17:46;;;;;;;21.55;11.07;;;;;;;10.57;100.00;101493.56;4775116;29;20135;-72
2024/01/26 09:20:12;;;;;;;14.35;9.02;;;;;;;10.49;100.00;101519.75;4792395;29;20122;-76
2024/01/26 09:22:37;;;;;;;13.75;7.68;;;;;;;10.52;100.00;101525.44;4778081;29;20074;-74
2024/01/26 09:25:03;;;;;;;7.82;3.65;;;;;;;10.45;100.00;101541.22;4790345;29;20501;-72
2024/01/26 09:27:29;;;;;;;12.00;2.60;;;;;;;10.00;100.00;101581.59;4776311;29;20706;-73
2024/01/26 09:29:55;;;;;;;3.75;1.23;;;;;;;9.66;100.00;101617.34;4771663;29;20085;-73
2024/01/26 09:32:20;;;;;;;2.97;1.38;;;;;;;9.70;100.00;101612.69;4788816;29;20043;-73
2024/01/26 09:34:46;;;;;;;3.00;0.98;;;;;;;9.39;100.00;101630.91;4777567;29;20031;-73
2024/01/26 09:37:11;;;;;;;2.47;1.00;;;;;;;9.43;100.00;101643.00;4775712;29;20405;-75
2024/01/26 09:39:36;;;;;;;3.92;1.20;;;;;;;9.39;100.00;101646.88;4780596;29;20501;-75
2024/01/26 09:42:02;;;;;;;2.60;1.02;;;;;;;9.34;100.00;101645.13;4774504;29;20035;-73
2024/01/26 09:44:27;;;;;;;1.90;0.60;;;;;;;9.23;100.00;101655.13;4779731;29;20046;-72
2024/01/26 09:46:54;;;;;;;1.05;0.70;;;;;;;9.23;100.00;101655.94;4778605;29;20051;-76
2024/01/26 09:49:20;;;;;;;3.58;0.85;;;;;;;9.24;100.00;101665.16;4789837;29;22011;-74
2024/01/26 09:51:46;;;;;;;2.30;0.60;;;;;;;9.23;100.00;101674.69;4776122;29;20038;-74
2024/01/26 09:54:13;;;;;;;3.60;0.60;;;;;;;9.20;100.00;101672.59;4782517;29;20039;-75
2024/01/26 09:56:38;;;;;;;1.42;0.35;;;;;;;9.21;100.00;101702.16;4775270;29;20062;-73
2024/01/26 09:59:05;;;;;;;3.97;0.85;;;;;;;9.01;100.00;101735.41;4774027;29;20515;-75
2024/01/26 10:01:32;;;;;;;3.05;1.08;;;;;;;9.16;100.00;101740.31;4774066;29;20040;-74
2024/01/26 10:03:58;;;;;;;8.18;1.27;;;;;;;9.21;100.00;101774.78;4776810;29;20039;-74
2024/01/26 10:06:24;;;;;;;2.42;0.68;;;;;;;9.22;100.00;101768.06;4782029;29;20043;-75
2024/01/26 10:08:49;;;;;;;5.93;1.67;;;;;;;9.05;100.00;101786.63;4783374;29;20041;-76
2024/01/26 10:11:15;;;;;;;3.50;1.10;;;;;;;9.13;100.00;101774.56;4778216;29;20071;-77
2024/01/26 10:13:40;;;;;;;6.32;1.45;;;;;;;9.13;100.00;101782.13;4782755;29;20046;-76
2024/01/26 10:16:11;;;;;;;6.80;1.75;;;;;;;8.94;100.00;101782.66;4793876;29;20031;-76
2024/01/26 10:18:45;;;;;;;4.03;1.20;;;;;;;9.05;100.00;101783.84;4781232;29;20068;-76
2024/01/26 10:21:11;;;;;;;4.35;2.28;;;;;;;9.10;100.00;101793.97;4782462;29;20044;-76
2024/01/26 10:23:37;;;;;;;8.25;1.10;;;;;;;9.00;100.00;101805.56;4777657;29;20120;-76
2024/01/26 10:26:02;;;;;;;6.53;1.52;;;;;;;9.12;100.00;101805.59;4777175;29;20519;-76
2024/01/26 10:28:28;;;;;;;5.68;1.52;;;;;;;9.00;100.00;101817.56;4778824;29;20038;-76
2024/01/26 10:30:53;;;;;;;13.10;1.70;;;;;;;9.03;100.00;101814.09;4782306;29;20031;-76
2024/01/26 10:33:22;;;;;;;10.50;1.90;;;;;;;9.08;100.00;101811.06;4778501;29;20034;-76
2024/01/26 10:35:49;;;;;;;8.50;1.92;;;;;;;8.95;100.00;101828.94;4779778;29;20031;-76
2024/01/26 10:38:15;;;;;;;7.28;1.00;;;;;;;9.05;100.00;101833.28;4778992;29;20067;-76
2024/01/26 10:40:44;;;;;;;11.85;2.78;;;;;;;8.94;100.00;101847.69;4778109;29;20553;-76
2024/01/26 10:43:14;;;;;;;12.82;2.22;;;;;;;8.80;100.00;101849.94;4779441;29;20077;-76
2024/01/26 10:45:41;;;;;;;9.50;1.55;;;;;;;8.87;100.00;101858.56;4778112;29;20455;-76
2024/01/26 10:48:09;;;;;;;6.82;1.48;;;;;;;8.92;100.00;101857.56;4778139;29;20079;-76
2024/01/26 10:50:35;;;;;;;8.93;1.90;;;;;;;8.89;100.00;101858.25;4777074;29;20042;-76
2024/01/26 10:53:03;;;;;;;9.98;2.65;;;;;;;8.88;100.00;101874.19;4780272;29;21020;-76
2024/01/26 10:55:30;;;;;;;12.20;1.75;;;;;;;8.85;100.00;101888.81;4776365;29;20042;-76
2024/01/26 10:57:55;;;;;;;11.85;2.05;;;;;;;8.88;100.00;101892.91;4779319;29;20035;-76
2024/01/26 11:00:21;;;;;;;11.25;1.90;;;;;;;8.81;100.00;101898.22;4778565;29;20159;-76
2024/01/26 11:02:47;;;;;;;12.43;2.33;;;;;;;8.90;100.00;101915.72;4775973;29;20042;-76